Neshkoro, Wisconsin
Current Conditions -  °F | °C
As of 2:56 PM on Tuesday 25 Nov 2014 (Local Time) from KY50 Reporting Station
Overcast Overcast  
Wind Chill: 12°   Ceiling: 1600
Heat Index: 21°   Visibility: 10mi
Dew Point: 15°   Wind: 7mph
Humidity: 78%   Direction: 270°W
Pressure: 30.08"   Gusts: NA
Location:  43.97°N, 89.22°W
Report Text: KY50 252056Z AUTO 27006KT 10SM OVC016 M06/M09 A3008 RMK AO2 TSNO 53011 T10611094 SLP196
Loading
Personal Weather Stations






























Interactive Weather Map New forecast layout! Learn more

10-Day Weather Forecast

Advertisements
Track Severe Weather on mobile